Amanda Park, WA

2:49 AM PST on February 10, 2016 (GMT -0800)
Humptulips / Axford Prairie | | Change Station
CLOSE
Current Station
Personal Weather Station
Location: Humptulips, WA
Elevation: 165 ft
Nearby Weather Stations

Elev 165 ft 47.18 °N, 123.96 °W | Updated 7 seconds ago

Mostly Cloudy
Mostly Cloudy
43.9 °F
Feels Like 44 °F
N
0.0
Wind Variable Wind from SE
Gusts 0.0 mph

Today
High -- | Low -- °F
--% Chance of Precip.
Yesterday
High -- | Low -- °F
Precip. -- in
Pressure 30.12 in
Visibility 7.0 miles
Clouds Few 12000 ft
Windchill 44 °F
Dew Point 43 °F
Humidity 95%
Rainfall 0.00 in
Snow Depth Not available.
7:29 AM 5:31 PM
Waxing Crescent, 5% visible
METAR KHQM 100953Z AUTO 05004KT 7SM FEW120 10/08 A3011 RMK AO2 SLP198 T01000078
Pressure 30.12 in
Visibility 7.0 miles
Clouds Few 12000 ft
Windchill 44 °F
Dew Point 43 °F
Humidity 95%
Rainfall 0.00 in
Snow Depth Not available.
7:29 AM 5:31 PM
Waxing Crescent, 5% visible
METAR KHQM 100953Z AUTO 05004KT 7SM FEW120 10/08 A3011 RMK AO2 SLP198 T01000078

10-Day Weather Forecast

Almanac

Astronomy

Feb. 10, 2016 Rise Set
Actual Time
Civil Twilight
Nautical Twilight
Astronomical Twilight
Moon
Length of Visible Light
Length of Day
Tomorrow will be .
, % of the Moon is Illuminated

Today's Extremes

State Highs State Lows

Community

WunderPhotos

Upload Photos

1,891,830 photos uploaded!

WunderBlog® & News

Nearby

Air Quality

  Air Quality AQ Index Pollutant
Not available.

Snow Depth

Station Depth Elevation

Earthquake Activity

City Distance Mag. Time & Date
Minimum magnitude displayed is 2.5.

Coastal Water Temperatures

Place Temperature

Stations

Nearby Weather Stations

Station Location Temp. Windchill Dew Point Humidity Wind Precip. Elev Updated Type
                   

Watches & Warnings

There are currently no watches in effect.